This is the latest recevied weather packets stored in our database for station/object SA7AHC. If no packets are shown the sender has not sent any weather packets the latest 10 day(s).
| Time | Temp. | Humidity | Pressure | Rain* | Wind** | Luminosity | Snow |
|---|---|---|---|---|---|---|---|
| 1777184251 | 1.11° C | 69% | 1019.5 hPa | 0 mm | - | 151 W/m² | - |
| 1777183651 | 1.11° C | 69% | 1019.5 hPa | 0 mm | - | 162 W/m² | - |
| 1777183054 | 1.11° C | 71% | 1019.5 hPa | 0 mm | - | 28 W/m² | - |
| 1777182454 | 0.56° C | 70% | 1019.3 hPa | 0 mm | - | 26 W/m² | - |
| 1777181851 | 0.56° C | 70% | 1018.9 hPa | 0 mm | - | 26 W/m² | - |
| 1777181254 | 0.56° C | 72% | 1018.9 hPa | 0 mm | - | 25 W/m² | - |
| 1777180654 | 0° C | 74% | 1018.7 hPa | 0 mm | - | 23 W/m² | - |
| 1777180054 | -0.56° C | 75% | 1018.2 hPa | 0 mm | - | 23 W/m² | - |
| 1777179452 | -0.56° C | 75% | 1018.2 hPa | 0 mm | - | 21 W/m² | - |
| 1777178857 | -0.56° C | 76% | 1017.8 hPa | 0 mm | - | 19 W/m² | - |
| 1777178254 | -1.11° C | 77% | 1017.6 hPa | 0 mm | - | 18 W/m² | - |
| 1777177658 | -1.11° C | 78% | 1017.6 hPa | 0 mm | - | 16 W/m² | - |
| 1777177052 | -1.67° C | 80% | 1017.2 hPa | 0 mm | - | 14 W/m² | - |
| 1777176454 | -1.11° C | 78% | 1017.1 hPa | 0 mm | - | 12 W/m² | - |
| 1777175854 | -1.11° C | 78% | 1017.1 hPa | 0 mm | - | 11 W/m² | - |
| 1777175254 | -1.67° C | 79% | 1016.6 hPa | 0 mm | - | 7 W/m² | - |
| 1777174651 | -1.67° C | 79% | 1016.6 hPa | 0 mm | - | 5 W/m² | - |
| 1777174054 | -1.11° C | 76% | 1016.6 hPa | 0 mm | - | 0 W/m² | - |
| 1777173451 | -1.11° C | 76% | 1016.4 hPa | 0 mm | - | 0 W/m² | - |
| 1777172856 | -1.11° C | 77% | 1016.1 hPa | 0 mm | - | 0 W/m² | - |
| 1777172252 | -1.11° C | 77% | 1016.1 hPa | 0 mm | - | 0 W/m² | - |
| 1777171654 | -1.11° C | 79% | 1016 hPa | 0 mm | - | 0 W/m² | - |
| 1777171054 | -1.67° C | 82% | 1015.6 hPa | 0 mm | - | 0 W/m² | - |
| 1777170453 | -2.22° C | 87% | 1015.5 hPa | 0 mm | - | 0 W/m² | - |
| 1777169854 | -2.78° C | 89% | 1015.4 hPa | 0 mm | - | 0 W/m² | - |
* Rain latest hour (hover to see other rain measurements)
** Current wind speed in m/s (hover to see current wind gust speed)